Time;durP1;ratioP1;P1;durP2;ratioP2;P2;SDS_P1;SDS_P2;PMS_P1;PMS_P2;Temp;Humidity;BMP_temperature;BMP_pressure;BME280_temperature;BME280_humidity;BME280_pressure;Samples;Min_cycle;Max_cycle;Signal;HPM_P1;HPM_P2
2022/07/07 00:01:29;;;;;;;5.13;4.80;;;;;;;;;;6200664;28;20304;-74
2022/07/07 00:04:51;;;;;;;5.03;4.63;;;;;;;;;;6201303;28;20253;-76
2022/07/07 00:08:11;;;;;;;5.37;5.03;;;;;;;;;;6198506;28;20238;-74
2022/07/07 00:11:32;;;;;;;5.10;4.80;;;;;;;;;;6206025;28;20221;-74
2022/07/07 00:14:53;;;;;;;4.83;4.53;;;;;;;;;;6199038;28;20284;-74
2022/07/07 00:18:13;;;;;;;5.40;5.00;;;;;;;;;;6202884;28;20249;-75
2022/07/07 00:21:36;;;;;;;5.57;5.20;;;;;;;;;;6201498;28;20260;-74
2022/07/07 00:24:56;;;;;;;4.80;4.50;;;;;;;;;;6204372;28;20237;-74
2022/07/07 00:28:17;;;;;;;5.43;5.03;;;;;;;;;;6204446;28;20229;-76
2022/07/07 00:31:37;;;;;;;4.83;4.53;;;;;;;;;;6208713;28;20236;-74
2022/07/07 00:34:58;;;;;;;4.83;4.53;;;;;;;;;;6202151;28;20316;-76
2022/07/07 00:38:20;;;;;;;6.07;4.67;;;;;;;;;;6203076;28;20232;-75
2022/07/07 00:41:41;;;;;;;4.77;4.37;;;;;;;;;;6206011;28;20233;-76
2022/07/07 00:45:02;;;;;;;4.70;4.40;;;;;;;;;;6202952;28;20650;-73
2022/07/07 00:48:22;;;;;;;3.63;3.40;;;;;;;;;;6204695;28;20719;-75
2022/07/07 00:51:43;;;;;;;4.17;3.97;;;;;;;;;;6212867;28;20228;-74
2022/07/07 00:55:08;;;;;;;4.33;4.03;;;;;;;;;;6217298;28;20226;-76
2022/07/07 00:58:29;;;;;;;4.70;4.33;;;;;;;;;;6208199;28;20260;-75
2022/07/07 01:01:49;;;;;;;5.37;5.03;;;;;;;;;;6208640;28;20233;-76
2022/07/07 01:05:10;;;;;;;5.40;5.00;;;;;;;;;;6210969;28;20249;-75
2022/07/07 01:08:31;;;;;;;4.60;4.30;;;;;;;;;;6210099;28;20229;-75
2022/07/07 01:11:53;;;;;;;5.00;4.67;;;;;;;;;;6212745;28;20345;-75
2022/07/07 01:15:14;;;;;;;5.00;4.47;;;;;;;;;;6208638;28;20230;-76
2022/07/07 01:18:35;;;;;;;5.27;4.90;;;;;;;;;;6212519;28;20229;-77
2022/07/07 01:21:57;;;;;;;6.30;5.90;;;;;;;;;;6208688;28;20229;-76
2022/07/07 01:25:20;;;;;;;5.63;5.23;;;;;;;;;;6209146;28;20221;-74
2022/07/07 01:28:41;;;;;;;5.63;5.23;;;;;;;;;;6204296;28;20233;-76
2022/07/07 01:32:02;;;;;;;6.13;5.63;;;;;;;;;;6210020;28;20264;-74
2022/07/07 01:35:22;;;;;;;6.43;5.93;;;;;;;;;;6193849;28;21785;-74
2022/07/07 01:38:43;;;;;;;5.93;5.50;;;;;;;;;;6201708;28;20532;-74
2022/07/07 01:42:06;;;;;;;6.50;6.00;;;;;;;;;;6199591;28;20582;-76
2022/07/07 01:45:26;;;;;;;6.00;5.60;;;;;;;;;;6202475;28;20217;-77
2022/07/07 01:48:47;;;;;;;6.80;6.37;;;;;;;;;;6205483;28;20240;-75
2022/07/07 01:52:08;;;;;;;7.17;6.67;;;;;;;;;;6200276;28;20324;-76
2022/07/07 01:55:28;;;;;;;6.97;6.47;;;;;;;;;;6199399;28;20229;-75
2022/07/07 01:58:50;;;;;;;6.97;6.47;;;;;;;;;;6198829;28;20324;-75
2022/07/07 02:02:12;;;;;;;7.97;7.43;;;;;;;;;;6174239;28;20229;-76
2022/07/07 02:05:33;;;;;;;8.07;7.27;;;;;;;;;;6190381;28;20232;-77
2022/07/07 02:08:53;;;;;;;9.03;8.33;;;;;;;;;;6197669;28;20217;-75
2022/07/07 02:12:14;;;;;;;9.37;8.67;;;;;;;;;;6194752;28;20481;-75
2022/07/07 02:15:36;;;;;;;9.67;9.07;;;;;;;;;;6190961;28;20252;-74
2022/07/07 02:18:58;;;;;;;9.97;9.27;;;;;;;;;;6197994;28;20229;-77
2022/07/07 02:22:19;;;;;;;8.77;8.17;;;;;;;;;;6197456;28;20559;-75
2022/07/07 02:25:39;;;;;;;9.17;8.50;;;;;;;;;;6197265;28;20241;-75
2022/07/07 02:28:59;;;;;;;10.73;9.83;;;;;;;;;;6206463;28;20233;-74
2022/07/07 02:32:21;;;;;;;10.87;9.97;;;;;;;;;;6200851;28;20615;-75
2022/07/07 02:35:42;;;;;;;12.03;11.13;;;;;;;;;;6203977;28;20622;-75
2022/07/07 02:39:03;;;;;;;12.40;11.53;;;;;;;;;;6207569;28;20229;-76
2022/07/07 02:42:23;;;;;;;12.73;11.60;;;;;;;;;;6200041;28;20233;-74
2022/07/07 02:45:44;;;;;;;12.73;11.83;;;;;;;;;;6194448;28;20316;-75
2022/07/07 02:49:06;;;;;;;12.27;11.27;;;;;;;;;;6205343;28;20622;-75
2022/07/07 02:52:27;;;;;;;14.03;12.90;;;;;;;;;;6181073;28;20229;-76
2022/07/07 02:55:48;;;;;;;12.83;11.83;;;;;;;;;;6199416;28;20237;-75
2022/07/07 02:59:09;;;;;;;13.47;12.47;;;;;;;;;;6203215;28;20233;-75
2022/07/07 03:02:29;;;;;;;14.40;13.23;;;;;;;;;;6194549;28;20260;-75
2022/07/07 03:05:52;;;;;;;14.97;13.83;;;;;;;;;;6199655;28;20269;-75
2022/07/07 03:09:12;;;;;;;13.70;12.60;;;;;;;;;;6201451;28;20241;-74
2022/07/07 03:12:33;;;;;;;14.33;13.30;;;;;;;;;;6202728;28;20520;-76
2022/07/07 03:15:54;;;;;;;15.93;14.63;;;;;;;;;;6201557;28;20237;-74
2022/07/07 03:19:14;;;;;;;14.00;12.93;;;;;;;;;;6199346;28;20225;-75
2022/07/07 03:22:37;;;;;;;14.50;13.30;;;;;;;;;;6203385;28;20268;-75
2022/07/07 03:25:57;;;;;;;14.27;13.00;;;;;;;;;;6199789;28;20241;-75
2022/07/07 03:29:18;;;;;;;13.83;12.63;;;;;;;;;;6200040;28;20347;-75
2022/07/07 03:32:39;;;;;;;15.30;14.20;;;;;;;;;;6201075;28;20236;-75
2022/07/07 03:35:59;;;;;;;12.97;11.97;;;;;;;;;;6202757;28;20635;-76
2022/07/07 03:39:21;;;;;;;13.40;12.47;;;;;;;;;;6186555;28;20229;-77
2022/07/07 03:42:42;;;;;;;13.93;12.83;;;;;;;;;;6200816;28;20626;-76
2022/07/07 03:46:03;;;;;;;14.00;12.80;;;;;;;;;;6203539;28;20237;-76
2022/07/07 03:49:23;;;;;;;14.23;13.13;;;;;;;;;;6201959;28;20231;-75
2022/07/07 03:52:44;;;;;;;12.97;12.03;;;;;;;;;;6204152;28;20681;-76
2022/07/07 03:56:06;;;;;;;12.27;11.17;;;;;;;;;;6202951;28;20753;-76
2022/07/07 03:59:27;;;;;;;13.03;12.07;;;;;;;;;;6203317;28;20244;-75
2022/07/07 04:02:47;;;;;;;12.03;11.13;;;;;;;;;;6198831;28;20264;-74
2022/07/07 04:06:08;;;;;;;9.43;8.73;;;;;;;;;;6204251;28;20229;-75
2022/07/07 04:09:28;;;;;;;10.00;9.30;;;;;;;;;;6200458;28;20218;-75
2022/07/07 04:12:50;;;;;;;10.73;9.93;;;;;;;;;;6200690;28;20221;-75
2022/07/07 04:16:11;;;;;;;10.27;9.47;;;;;;;;;;6200776;28;20221;-74
2022/07/07 04:19:32;;;;;;;9.27;8.47;;;;;;;;;;6203425;28;20579;-75
2022/07/07 04:22:52;;;;;;;9.47;8.77;;;;;;;;;;6205035;28;20229;-75
2022/07/07 04:26:13;;;;;;;9.37;8.67;;;;;;;;;;6197786;28;20237;-75
2022/07/07 04:29:35;;;;;;;8.67;8.00;;;;;;;;;;6202778;28;20225;-74
2022/07/07 04:32:55;;;;;;;9.50;8.80;;;;;;;;;;6200430;28;20237;-75
2022/07/07 04:36:16;;;;;;;9.43;8.77;;;;;;;;;;6195102;28;20228;-74
2022/07/07 04:39:37;;;;;;;10.07;9.33;;;;;;;;;;6204312;28;20885;-75
2022/07/07 04:42:57;;;;;;;9.20;8.40;;;;;;;;;;6198992;28;20237;-74
2022/07/07 04:46:19;;;;;;;8.40;7.80;;;;;;;;;;6200488;28;20232;-74
2022/07/07 04:49:40;;;;;;;9.10;8.50;;;;;;;;;;6200489;28;20264;-75
2022/07/07 04:53:01;;;;;;;8.20;7.60;;;;;;;;;;6205494;28;20232;-74
2022/07/07 04:56:21;;;;;;;9.03;8.33;;;;;;;;;;6199014;28;20249;-74
2022/07/07 04:59:42;;;;;;;10.57;9.67;;;;;;;;;;6202097;28;20759;-73
2022/07/07 05:03:04;;;;;;;11.27;10.47;;;;;;;;;;6199219;28;20232;-73
2022/07/07 05:06:24;;;;;;;10.60;9.83;;;;;;;;;;6201279;28;20232;-76
2022/07/07 05:09:45;;;;;;;8.60;8.00;;;;;;;;;;6197324;28;20340;-76
2022/07/07 05:13:06;;;;;;;4.87;4.53;;;;;;;;;;6202142;28;20225;-75
2022/07/07 05:16:27;;;;;;;4.07;3.77;;;;;;;;;;6196738;28;20570;-75
2022/07/07 05:19:49;;;;;;;3.30;3.10;;;;;;;;;;6204873;28;20229;-74
2022/07/07 05:23:10;;;;;;;4.20;3.87;;;;;;;;;;6195461;28;20245;-75
2022/07/07 05:26:31;;;;;;;3.40;3.20;;;;;;;;;;6196788;28;20237;-76
2022/07/07 05:29:52;;;;;;;3.67;3.43;;;;;;;;;;6196039;28;20225;-75
2022/07/07 05:33:12;;;;;;;3.30;3.00;;;;;;;;;;6204511;28;20233;-76
2022/07/07 05:36:34;;;;;;;2.73;2.53;;;;;;;;;;6195664;28;20237;-77
2022/07/07 05:39:55;;;;;;;1.87;1.77;;;;;;;;;;6188577;28;20233;-76
2022/07/07 05:43:15;;;;;;;1.60;1.50;;;;;;;;;;6192691;28;20352;-74
2022/07/07 05:46:36;;;;;;;2.30;2.20;;;;;;;;;;6192643;28;20226;-74
2022/07/07 05:49:56;;;;;;;1.60;1.50;;;;;;;;;;6194485;28;20229;-77
2022/07/07 05:53:18;;;;;;;2.17;1.35;;;;;;;;;;6195971;28;20246;-76
2022/07/07 05:56:39;;;;;;;1.30;1.20;;;;;;;;;;6195851;28;20225;-76
2022/07/07 06:00:00;;;;;;;1.20;1.10;;;;;;;;;;6194324;28;20237;-76
2022/07/07 06:03:21;;;;;;;1.63;1.07;;;;;;;;;;6199888;28;20232;-74
2022/07/07 06:06:41;;;;;;;2.13;1.03;;;;;;;;;;6197453;28;20237;-70
2022/07/07 06:10:04;;;;;;;2.23;1.20;;;;;;;;;;6198032;28;20232;-72
2022/07/07 06:13:24;;;;;;;2.55;1.52;;;;;;;;;;6200598;28;20229;-72
2022/07/07 06:16:45;;;;;;;1.38;1.27;;;;;;;;;;6196256;28;21144;-70
2022/07/07 06:20:06;;;;;;;2.10;1.50;;;;;;;;;;6192620;28;20233;-70
2022/07/07 06:23:27;;;;;;;2.67;1.50;;;;;;;;;;6184165;28;20232;-69
2022/07/07 06:26:49;;;;;;;1.15;1.05;;;;;;;;;;6202035;28;20530;-70
2022/07/07 06:30:11;;;;;;;1.48;1.38;;;;;;;;;;6199193;28;21184;-70
2022/07/07 06:33:31;;;;;;;2.30;1.08;;;;;;;;;;6201307;28;20229;-69
2022/07/07 06:36:51;;;;;;;1.67;1.00;;;;;;;;;;6202678;28;20232;-69
2022/07/07 06:40:13;;;;;;;2.35;1.15;;;;;;;;;;6203387;28;20225;-69
2022/07/07 06:43:35;;;;;;;1.13;0.93;;;;;;;;;;6197941;28;20232;-74
2022/07/07 06:46:55;;;;;;;1.75;1.40;;;;;;;;;;6201271;28;20837;-75
2022/07/07 06:50:17;;;;;;;2.15;1.10;;;;;;;;;;6202222;28;20233;-72
2022/07/07 06:53:37;;;;;;;1.83;1.27;;;;;;;;;;6192214;28;20237;-71
2022/07/07 06:56:58;;;;;;;2.03;1.40;;;;;;;;;;6197268;28;20253;-70
2022/07/07 07:00:20;;;;;;;2.88;1.60;;;;;;;;;;6199452;28;20316;-69
2022/07/07 07:03:41;;;;;;;2.97;1.85;;;;;;;;;;6198048;28;20276;-70
2022/07/07 07:07:01;;;;;;;2.53;1.73;;;;;;;;;;6197560;28;20305;-70
2022/07/07 07:10:22;;;;;;;4.28;2.42;;;;;;;;;;6194243;28;20590;-71
2022/07/07 07:13:43;;;;;;;1.80;1.60;;;;;;;;;;6204447;28;20520;-68
2022/07/07 07:17:05;;;;;;;1.88;1.42;;;;;;;;;;6198734;28;20376;-68
2022/07/07 07:20:26;;;;;;;4.60;1.50;;;;;;;;;;6203495;28;20229;-69
2022/07/07 07:23:46;;;;;;;1.75;1.20;;;;;;;;;;6201997;28;20225;-69
2022/07/07 07:27:07;;;;;;;6.40;2.13;;;;;;;;;;6207477;28;20325;-68
2022/07/07 07:30:28;;;;;;;2.35;1.30;;;;;;;;;;6205790;28;20257;-70
2022/07/07 07:33:50;;;;;;;2.13;1.42;;;;;;;;;;6208146;28;20618;-70
2022/07/07 07:37:11;;;;;;;3.10;1.60;;;;;;;;;;6202430;28;20237;-72
2022/07/07 07:40:32;;;;;;;4.93;2.30;;;;;;;;;;6197345;28;20264;-72
2022/07/07 07:43:53;;;;;;;3.63;2.05;;;;;;;;;;6196969;28;20264;-72
2022/07/07 07:47:13;;;;;;;3.10;2.28;;;;;;;;;;6193622;28;20253;-72
2022/07/07 07:50:35;;;;;;;2.95;1.60;;;;;;;;;;6196186;28;20303;-69
2022/07/07 07:53:56;;;;;;;3.40;1.55;;;;;;;;;;6198182;28;20238;-70
2022/07/07 07:57:16;;;;;;;1.95;1.52;;;;;;;;;;6196043;28;21970;-70
2022/07/07 08:00:37;;;;;;;1.98;1.33;;;;;;;;;;6197571;28;20261;-69
2022/07/07 08:03:58;;;;;;;3.40;1.17;;;;;;;;;;6194157;28;20237;-69
2022/07/07 08:07:19;;;;;;;3.25;1.77;;;;;;;;;;6191411;28;20530;-69
2022/07/07 08:10:40;;;;;;;3.05;1.75;;;;;;;;;;6199213;28;20626;-69
2022/07/07 08:14:01;;;;;;;2.67;1.77;;;;;;;;;;6206230;28;20256;-69
2022/07/07 08:17:22;;;;;;;1.52;1.30;;;;;;;;;;6198279;28;20568;-70
2022/07/07 08:20:42;;;;;;;2.92;1.65;;;;;;;;;;6201773;28;20229;-70
2022/07/07 08:24:05;;;;;;;3.35;1.90;;;;;;;;;;6206231;28;20797;-70
2022/07/07 08:27:25;;;;;;;3.13;2.53;;;;;;;;;;6202625;28;20638;-69
2022/07/07 08:30:46;;;;;;;2.72;1.80;;;;;;;;;;6202134;28;20237;-71
2022/07/07 08:34:07;;;;;;;3.75;1.92;;;;;;;;;;6205147;28;20943;-73
2022/07/07 08:37:27;;;;;;;3.47;1.52;;;;;;;;;;6205188;28;21373;-70
2022/07/07 08:40:49;;;;;;;4.30;1.80;;;;;;;;;;6203547;28;20233;-71
2022/07/07 08:44:10;;;;;;;2.85;1.45;;;;;;;;;;6195599;28;20245;-69
2022/07/07 08:47:31;;;;;;;3.70;2.30;;;;;;;;;;6198631;28;20226;-68
2022/07/07 08:50:52;;;;;;;3.25;2.85;;;;;;;;;;6188419;28;20987;-70
2022/07/07 08:54:13;;;;;;;1.98;1.65;;;;;;;;;;6195123;28;20225;-69
2022/07/07 08:57:35;;;;;;;2.05;1.60;;;;;;;;;;6188791;28;20238;-72
2022/07/07 09:00:57;;;;;;;3.47;1.77;;;;;;;;;;6189945;28;20237;-70
2022/07/07 09:04:17;;;;;;;5.13;1.92;;;;;;;;;;6191159;28;20233;-70
2022/07/07 09:07:44;;;;;;;9.15;2.00;;;;;;;;;;6197627;28;20233;-70
2022/07/07 09:11:07;;;;;;;5.25;3.15;;;;;;;;;;6197522;28;20518;-74
2022/07/07 09:14:34;;;;;;;3.92;1.98;;;;;;;;;;6195976;28;20233;-71
2022/07/07 09:17:55;;;;;;;3.45;1.40;;;;;;;;;;6188045;28;20312;-71
2022/07/07 09:21:26;;;;;;;6.05;1.98;;;;;;;;;;6187083;28;20525;-70
2022/07/07 09:24:56;;;;;;;3.42;1.42;;;;;;;;;;6186455;28;20237;-70
2022/07/07 09:28:17;;;;;;;2.75;2.42;;;;;;;;;;6183990;28;20229;-71
2022/07/07 09:31:51;;;;;;;1.60;1.48;;;;;;;;;;6187288;28;20240;-72
2022/07/07 09:38:13;;;;;;;3.05;1.45;;;;;;;;;;6185705;28;21832;-70
2022/07/07 09:39:04;;;;;;;3.20;1.55;;;;;;;;;;6188056;28;20321;-70
2022/07/07 09:42:26;;;;;;;3.33;1.40;;;;;;;;;;6188452;28;20705;-68
2022/07/07 09:45:49;;;;;;;5.05;2.13;;;;;;;;;;6186891;28;20237;-69
2022/07/07 09:49:12;;;;;;;3.28;1.25;;;;;;;;;;6189530;28;20585;-70
2022/07/07 09:52:34;;;;;;;4.45;1.42;;;;;;;;;;6196840;28;20237;-68
2022/07/07 09:56:00;;;;;;;1.92;1.48;;;;;;;;;;6197063;28;20619;-70
2022/07/07 09:59:21;;;;;;;1.98;1.73;;;;;;;;;;6198054;28;20892;-70
2022/07/07 10:02:43;;;;;;;6.07;1.95;;;;;;;;;;6195802;28;20252;-70
2022/07/07 10:06:06;;;;;;;4.03;1.77;;;;;;;;;;6197618;28;21048;-68
2022/07/07 10:09:27;;;;;;;2.45;1.85;;;;;;;;;;6190383;28;20237;-70
2022/07/07 10:12:49;;;;;;;3.78;1.83;;;;;;;;;;6198066;28;20237;-69
2022/07/07 10:16:10;;;;;;;5.22;2.20;;;;;;;;;;6199210;28;20642;-68
2022/07/07 10:19:30;;;;;;;4.10;2.47;;;;;;;;;;6195653;28;20308;-68
2022/07/07 10:22:52;;;;;;;4.30;1.65;;;;;;;;;;6196459;28;20228;-68
2022/07/07 10:26:12;;;;;;;4.32;2.00;;;;;;;;;;6194967;28;20240;-69
2022/07/07 10:29:38;;;;;;;5.10;2.00;;;;;;;;;;6200014;28;21544;-68
2022/07/07 10:32:58;;;;;;;2.25;1.25;;;;;;;;;;6201984;28;20233;-69
2022/07/07 10:36:19;;;;;;;2.40;1.45;;;;;;;;;;6206266;28;20225;-69
2022/07/07 10:39:44;;;;;;;2.97;1.60;;;;;;;;;;6203860;28;20229;-69
2022/07/07 10:43:23;;;;;;;2.97;1.48;;;;;;;;;;6194842;28;20507;-68
2022/07/07 10:46:57;;;;;;;2.45;1.15;;;;;;;;;;6193112;28;20263;-69
2022/07/07 10:50:25;;;;;;;3.78;1.55;;;;;;;;;;6200003;28;20516;-69
2022/07/07 10:53:56;;;;;;;2.05;1.10;;;;;;;;;;6196711;28;20339;-70
2022/07/07 10:57:18;;;;;;;4.32;1.35;;;;;;;;;;6203592;28;20253;-71
2022/07/07 11:00:39;;;;;;;2.70;1.23;;;;;;;;;;6198049;28;20221;-71
2022/07/07 11:04:01;;;;;;;4.43;1.52;;;;;;;;;;6197280;28;20643;-70
2022/07/07 11:07:24;;;;;;;4.82;2.05;;;;;;;;;;6185481;28;20262;-74
2022/07/07 11:10:52;;;;;;;3.55;1.27;;;;;;;;;;6203820;28;20233;-72
2022/07/07 11:14:14;;;;;;;3.78;1.70;;;;;;;;;;6209859;28;20236;-71
2022/07/07 11:17:35;;;;;;;3.03;1.38;;;;;;;;;;6208809;28;20237;-71
2022/07/07 11:21:00;;;;;;;3.15;1.60;;;;;;;;;;6207242;28;20249;-70
2022/07/07 11:24:22;;;;;;;3.10;1.58;;;;;;;;;;6207217;28;20669;-74
2022/07/07 11:27:43;;;;;;;2.28;1.40;;;;;;;;;;6204575;28;20226;-76
2022/07/07 11:31:06;;;;;;;1.92;1.20;;;;;;;;;;6201936;28;20225;-73
2022/07/07 11:34:27;;;;;;;5.10;1.60;;;;;;;;;;6205035;28;20313;-73
2022/07/07 11:37:48;;;;;;;3.40;1.10;;;;;;;;;;6197268;28;20264;-72
2022/07/07 11:41:09;;;;;;;2.55;1.17;;;;;;;;;;6214780;28;20229;-73
2022/07/07 11:44:29;;;;;;;2.67;0.93;;;;;;;;;;6205517;28;20229;-74
2022/07/07 11:47:52;;;;;;;2.85;1.67;;;;;;;;;;6203035;28;20233;-71
2022/07/07 11:51:14;;;;;;;3.05;1.42;;;;;;;;;;6199704;28;20328;-71
2022/07/07 11:54:42;;;;;;;2.10;1.00;;;;;;;;;;6196172;28;20221;-72
2022/07/07 11:58:04;;;;;;;2.63;0.95;;;;;;;;;;6200231;28;20590;-72
2022/07/07 12:01:25;;;;;;;2.67;1.02;;;;;;;;;;6194905;28;20225;-71
2022/07/07 12:04:47;;;;;;;2.60;0.95;;;;;;;;;;6197863;28;20256;-75
2022/07/07 12:08:08;;;;;;;1.30;1.02;;;;;;;;;;6198493;28;20229;-75
2022/07/07 12:11:28;;;;;;;2.78;1.13;;;;;;;;;;6206448;28;20249;-73
2022/07/07 12:14:49;;;;;;;1.63;1.42;;;;;;;;;;6204070;28;20237;-72
2022/07/07 12:18:11;;;;;;;2.25;1.00;;;;;;;;;;6202173;28;20225;-72
2022/07/07 12:21:33;;;;;;;3.17;1.17;;;;;;;;;;6206195;28;20225;-73
2022/07/07 12:25:00;;;;;;;1.73;1.20;;;;;;;;;;6200353;28;20233;-71
2022/07/07 12:28:33;;;;;;;2.20;0.90;;;;;;;;;;6205660;28;20229;-70
2022/07/07 12:31:54;;;;;;;2.40;1.35;;;;;;;;;;6205284;28;20589;-74
2022/07/07 12:35:27;;;;;;;2.58;1.38;;;;;;;;;;6201131;28;20236;-73
2022/07/07 12:38:52;;;;;;;5.90;1.65;;;;;;;;;;6205244;28;20363;-73
2022/07/07 12:42:23;;;;;;;3.03;2.38;;;;;;;;;;6193621;28;20228;-75
2022/07/07 12:45:45;;;;;;;4.43;2.47;;;;;;;;;;6204601;28;20332;-73
2022/07/07 12:49:06;;;;;;;7.25;1.98;;;;;;;;;;6205300;28;20638;-72
2022/07/07 12:52:26;;;;;;;3.92;1.77;;;;;;;;;;6206152;28;20252;-73
2022/07/07 12:55:48;;;;;;;6.93;2.67;;;;;;;;;;6204216;28;20655;-70
2022/07/07 12:59:15;;;;;;;9.82;3.13;;;;;;;;;;6200356;28;20229;-73
2022/07/07 13:02:36;;;;;;;7.90;3.55;;;;;;;;;;6210913;28;20233;-74
2022/07/07 13:05:57;;;;;;;7.25;2.90;;;;;;;;;;6201851;28;20233;-72
2022/07/07 13:09:18;;;;;;;18.70;3.35;;;;;;;;;;6202763;28;20241;-75
2022/07/07 13:12:41;;;;;;;11.20;3.35;;;;;;;;;;6204086;28;20316;-75
2022/07/07 13:16:02;;;;;;;7.72;3.42;;;;;;;;;;6199641;28;20228;-76
2022/07/07 13:19:22;;;;;;;9.45;3.83;;;;;;;;;;6197466;28;20237;-79
2022/07/07 13:22:43;;;;;;;8.55;3.95;;;;;;;;;;6207958;28;20245;-73
2022/07/07 13:26:04;;;;;;;7.82;3.33;;;;;;;;;;6196742;28;20225;-72
2022/07/07 13:29:26;;;;;;;6.18;2.35;;;;;;;;;;6202002;28;20234;-75
2022/07/07 13:32:46;;;;;;;7.40;2.72;;;;;;;;;;6201504;28;20760;-72
2022/07/07 13:36:07;;;;;;;13.68;5.05;;;;;;;;;;6194184;28;20249;-73
2022/07/07 13:39:28;;;;;;;8.93;3.00;;;;;;;;;;6198415;28;20233;-72
2022/07/07 13:42:48;;;;;;;8.75;2.85;;;;;;;;;;6197080;28;20255;-73
2022/07/07 13:46:10;;;;;;;9.88;3.53;;;;;;;;;;6200268;28;20249;-74
2022/07/07 13:49:31;;;;;;;8.23;2.97;;;;;;;;;;6199784;28;20229;-73
2022/07/07 13:52:51;;;;;;;9.07;3.50;;;;;;;;;;6197078;28;20225;-73
2022/07/07 13:56:11;;;;;;;6.20;2.15;;;;;;;;;;6200472;28;20236;-74
2022/07/07 13:59:32;;;;;;;9.85;3.47;;;;;;;;;;6200817;28;20224;-73
2022/07/07 14:02:54;;;;;;;8.02;3.15;;;;;;;;;;6200166;28;20869;-74
2022/07/07 14:06:15;;;;;;;8.13;2.85;;;;;;;;;;6216177;28;21063;-73
2022/07/07 14:09:36;;;;;;;7.35;2.38;;;;;;;;;;6199018;28;20240;-73
2022/07/07 14:12:57;;;;;;;15.65;3.70;;;;;;;;;;6197165;28;20233;-72
2022/07/07 14:16:18;;;;;;;10.00;3.08;;;;;;;;;;6203445;28;20237;-71
2022/07/07 14:19:40;;;;;;;7.28;2.95;;;;;;;;;;6193757;28;20332;-70
2022/07/07 14:23:00;;;;;;;8.93;2.95;;;;;;;;;;6196410;28;20241;-74
2022/07/07 14:26:21;;;;;;;12.05;2.83;;;;;;;;;;6188172;28;20236;-74
2022/07/07 14:29:42;;;;;;;5.90;2.72;;;;;;;;;;6204874;28;20229;-75
2022/07/07 14:33:03;;;;;;;8.23;2.78;;;;;;;;;;6203850;28;20602;-73
2022/07/07 14:36:25;;;;;;;6.30;2.60;;;;;;;;;;6201608;28;21103;-73
2022/07/07 14:39:46;;;;;;;6.32;2.85;;;;;;;;;;6202177;28;20246;-74
2022/07/07 14:43:06;;;;;;;8.20;2.90;;;;;;;;;;6208227;28;20590;-72
2022/07/07 14:46:27;;;;;;;10.75;4.00;;;;;;;;;;6207211;28;20225;-74
2022/07/07 14:49:48;;;;;;;9.43;3.08;;;;;;;;;;6211167;28;20630;-75
2022/07/07 14:53:10;;;;;;;11.02;3.13;;;;;;;;;;6204564;28;20615;-75
2022/07/07 14:56:30;;;;;;;11.38;3.53;;;;;;;;;;6202951;28;20238;-73
2022/07/07 14:59:51;;;;;;;4.68;2.22;;;;;;;;;;6206495;28;20612;-74
2022/07/07 15:03:12;;;;;;;7.82;2.65;;;;;;;;;;6202169;28;20551;-73
2022/07/07 15:06:34;;;;;;;9.48;3.00;;;;;;;;;;6201165;28;20229;-73
2022/07/07 15:09:55;;;;;;;7.93;2.40;;;;;;;;;;6205731;28;20221;-73
2022/07/07 15:13:18;;;;;;;9.02;2.58;;;;;;;;;;6195704;28;20233;-74
2022/07/07 15:16:38;;;;;;;8.48;3.45;;;;;;;;;;6199092;28;20218;-74
2022/07/07 15:19:59;;;;;;;6.38;2.92;;;;;;;;;;6205993;28;20611;-72
2022/07/07 15:23:20;;;;;;;11.65;2.22;;;;;;;;;;6212176;28;20233;-73
2022/07/07 15:26:42;;;;;;;9.05;2.78;;;;;;;;;;6209676;28;20727;-73
2022/07/07 15:30:03;;;;;;;8.82;2.65;;;;;;;;;;6206726;28;20316;-73
2022/07/07 15:33:24;;;;;;;7.75;2.70;;;;;;;;;;6210775;28;20610;-74
2022/07/07 15:36:45;;;;;;;9.00;4.10;;;;;;;;;;6208194;28;20312;-73
2022/07/07 15:40:07;;;;;;;9.07;3.70;;;;;;;;;;6210314;28;20229;-73
2022/07/07 15:43:29;;;;;;;5.00;2.20;;;;;;;;;;6210133;28;20240;-73
2022/07/07 15:46:51;;;;;;;12.48;3.95;;;;;;;;;;6208179;28;20253;-72
2022/07/07 15:50:12;;;;;;;6.65;2.67;;;;;;;;;;6208225;28;20233;-73
2022/07/07 15:53:33;;;;;;;7.68;2.45;;;;;;;;;;6202572;28;20474;-71
2022/07/07 15:56:54;;;;;;;9.40;3.63;;;;;;;;;;6206002;28;20237;-72
2022/07/07 16:00:16;;;;;;;9.10;3.72;;;;;;;;;;6206275;28;20309;-73
2022/07/07 16:04:33;;;;;;;8.85;3.20;;;;;;;;;;6191426;28;20639;-73
2022/07/07 16:07:18;;;;;;;9.10;3.53;;;;;;;;;;6194899;28;20241;-73
2022/07/07 16:10:39;;;;;;;13.60;3.38;;;;;;;;;;6201313;28;20237;-72
2022/07/07 16:14:00;;;;;;;12.48;3.45;;;;;;;;;;6205505;28;20312;-74
2022/07/07 16:17:22;;;;;;;12.07;3.42;;;;;;;;;;6204927;28;20244;-72
2022/07/07 16:20:42;;;;;;;9.32;3.25;;;;;;;;;;6204674;28;20225;-74
2022/07/07 16:24:03;;;;;;;15.35;3.78;;;;;;;;;;6207399;28;20690;-73
2022/07/07 16:27:24;;;;;;;11.13;4.32;;;;;;;;;;6203400;28;20352;-74
2022/07/07 16:30:44;;;;;;;9.98;3.60;;;;;;;;;;6193574;28;20233;-73
2022/07/07 16:34:07;;;;;;;13.32;3.47;;;;;;;;;;6212581;28;20229;-72
2022/07/07 16:37:28;;;;;;;10.82;4.32;;;;;;;;;;6201658;28;20245;-73
2022/07/07 16:40:49;;;;;;;11.05;3.17;;;;;;;;;;6208200;28;20666;-73
2022/07/07 16:44:09;;;;;;;8.18;2.80;;;;;;;;;;6210084;28;20241;-73
2022/07/07 16:47:30;;;;;;;10.05;3.63;;;;;;;;;;6203207;28;20232;-73
2022/07/07 16:50:52;;;;;;;11.77;3.80;;;;;;;;;;6206439;28;20735;-74
2022/07/07 16:54:13;;;;;;;13.80;4.35;;;;;;;;;;6201623;28;20759;-73
2022/07/07 16:57:33;;;;;;;15.68;3.85;;;;;;;;;;6207483;28;20228;-74
2022/07/07 17:00:54;;;;;;;10.85;3.35;;;;;;;;;;6203946;28;20619;-73
2022/07/07 17:04:14;;;;;;;11.80;4.95;;;;;;;;;;6208309;28;20217;-72
2022/07/07 17:07:36;;;;;;;9.48;3.78;;;;;;;;;;6205035;28;20225;-74
2022/07/07 17:10:57;;;;;;;11.02;3.65;;;;;;;;;;6201298;28;20230;-72
2022/07/07 17:14:18;;;;;;;8.90;3.85;;;;;;;;;;6208093;28;20241;-73
2022/07/07 17:17:38;;;;;;;12.07;3.80;;;;;;;;;;6201049;28;20217;-74
2022/07/07 17:20:59;;;;;;;11.77;4.05;;;;;;;;;;6201595;28;20678;-74
2022/07/07 17:24:21;;;;;;;12.27;5.20;;;;;;;;;;6204700;28;20260;-72
2022/07/07 17:27:41;;;;;;;9.85;4.03;;;;;;;;;;6206658;28;20248;-73
2022/07/07 17:31:02;;;;;;;11.02;4.63;;;;;;;;;;6203025;28;20639;-74
2022/07/07 17:34:22;;;;;;;13.05;4.82;;;;;;;;;;6197615;28;20232;-74
2022/07/07 17:37:43;;;;;;;11.57;4.03;;;;;;;;;;6200272;28;20796;-73
2022/07/07 17:41:05;;;;;;;9.18;3.90;;;;;;;;;;6204773;28;20256;-74
2022/07/07 17:44:27;;;;;;;12.90;4.05;;;;;;;;;;6205749;28;20311;-74
2022/07/07 17:47:48;;;;;;;11.90;3.85;;;;;;;;;;6200913;28;20241;-75
2022/07/07 17:51:09;;;;;;;13.90;4.68;;;;;;;;;;6203405;28;20237;-73
2022/07/07 17:54:30;;;;;;;11.30;4.68;;;;;;;;;;6196545;28;20226;-73
2022/07/07 17:57:51;;;;;;;14.35;4.43;;;;;;;;;;6201902;28;20225;-73
2022/07/07 18:01:13;;;;;;;15.38;4.82;;;;;;;;;;6207587;28;20248;-74
2022/07/07 18:04:33;;;;;;;17.73;5.22;;;;;;;;;;6212573;28;20248;-74
2022/07/07 18:07:54;;;;;;;13.52;6.53;;;;;;;;;;6212289;28;20236;-73
2022/07/07 18:11:15;;;;;;;15.95;5.22;;;;;;;;;;6210425;28;20328;-75
2022/07/07 18:14:37;;;;;;;15.18;5.45;;;;;;;;;;6213798;28;20248;-75
2022/07/07 18:17:58;;;;;;;12.77;4.97;;;;;;;;;;6211420;28;20228;-73
2022/07/07 18:21:19;;;;;;;16.45;6.18;;;;;;;;;;6213210;28;20225;-73
2022/07/07 18:24:39;;;;;;;12.30;4.25;;;;;;;;;;6215068;28;20232;-73
2022/07/07 18:28:00;;;;;;;14.05;4.80;;;;;;;;;;6200934;28;20237;-74
2022/07/07 18:31:22;;;;;;;12.35;4.45;;;;;;;;;;6207257;28;20232;-73
2022/07/07 18:34:42;;;;;;;19.70;5.95;;;;;;;;;;6203138;28;20233;-72
2022/07/07 18:38:03;;;;;;;17.58;5.72;;;;;;;;;;6206986;28;20521;-75
2022/07/07 18:41:24;;;;;;;13.98;4.82;;;;;;;;;;6205854;28;20270;-73
2022/07/07 18:44:45;;;;;;;11.00;4.13;;;;;;;;;;6214190;28;20237;-73
2022/07/07 18:48:07;;;;;;;13.35;4.88;;;;;;;;;;6210289;28;20252;-73
2022/07/07 18:51:38;;;;;;;14.68;5.35;;;;;;;;;;6213438;28;20248;-74
2022/07/07 18:54:59;;;;;;;18.75;4.97;;;;;;;;;;6206601;28;20654;-75
2022/07/07 18:58:19;;;;;;;15.38;5.13;;;;;;;;;;6206490;28;20233;-73
2022/07/07 19:01:39;;;;;;;17.08;6.85;;;;;;;;;;6210167;28;20244;-74
2022/07/07 19:05:02;;;;;;;18.67;5.47;;;;;;;;;;6214913;28;20229;-73
2022/07/07 19:08:22;;;;;;;13.05;4.45;;;;;;;;;;6212651;28;20368;-73
2022/07/07 19:11:43;;;;;;;16.88;5.07;;;;;;;;;;6205177;28;20224;-74
2022/07/07 19:15:04;;;;;;;13.77;5.43;;;;;;;;;;6203431;28;20608;-72
2022/07/07 19:18:24;;;;;;;16.73;5.35;;;;;;;;;;6198703;28;20225;-74
2022/07/07 19:21:46;;;;;;;14.55;5.35;;;;;;;;;;6198569;28;20319;-75
2022/07/07 19:25:07;;;;;;;21.05;5.53;;;;;;;;;;6201510;28;20234;-73
2022/07/07 19:28:28;;;;;;;15.05;5.68;;;;;;;;;;6201482;28;20517;-74
2022/07/07 19:31:49;;;;;;;13.85;5.05;;;;;;;;;;6206620;28;20340;-74
2022/07/07 19:35:11;;;;;;;16.05;5.97;;;;;;;;;;6202806;28;20225;-74
2022/07/07 19:38:33;;;;;;;17.13;5.53;;;;;;;;;;6201520;28;21147;-74
2022/07/07 19:41:53;;;;;;;13.75;4.07;;;;;;;;;;6198917;28;21023;-74
2022/07/07 19:45:14;;;;;;;15.75;5.03;;;;;;;;;;6206600;28;20225;-73
2022/07/07 19:48:34;;;;;;;15.57;5.70;;;;;;;;;;6207236;28;20618;-74
2022/07/07 19:51:55;;;;;;;13.23;5.10;;;;;;;;;;6209291;28;20232;-73
2022/07/07 19:55:17;;;;;;;16.30;6.03;;;;;;;;;;6207214;28;20350;-74
2022/07/07 19:58:38;;;;;;;16.92;5.35;;;;;;;;;;6207603;28;20317;-74
2022/07/07 20:01:58;;;;;;;19.88;5.18;;;;;;;;;;6200456;28;20229;-74